createdAt,value
2022-07-27T00:02:31.776Z,1.31
2022-07-27T00:22:37.552Z,1.56
2022-07-27T00:42:43.842Z,1.49
2022-07-27T01:02:49.674Z,1.71
2022-07-27T01:22:55.387Z,1.90
2022-07-27T01:43:01.201Z,1.89
2022-07-27T02:03:07.034Z,2.21
2022-07-27T02:23:12.867Z,2.31
2022-07-27T02:43:18.671Z,2.18
2022-07-27T03:03:24.475Z,2.24
2022-07-27T03:23:29.782Z,2.32
2022-07-27T03:43:36.080Z,2.10
2022-07-27T04:03:44.350Z,2.13
2022-07-27T04:23:47.720Z,2.36
2022-07-27T04:43:53.972Z,2.22
2022-07-27T05:03:59.822Z,2.37
2022-07-27T05:24:07.860Z,2.40
2022-07-27T05:44:13.637Z,2.45
2022-07-27T06:04:19.412Z,2.33
2022-07-27T06:24:25.221Z,2.45
2022-07-27T06:44:31.459Z,2.36
2022-07-27T07:04:37.728Z,2.70
2022-07-27T07:24:43.604Z,2.41
2022-07-27T07:44:49.878Z,2.59
2022-07-27T08:04:56.112Z,2.24
2022-07-27T08:25:02.481Z,2.86
2022-07-27T08:45:08.718Z,2.42
2022-07-27T09:05:15.670Z,2.38
2022-07-27T09:25:44.841Z,1.43
2022-07-27T09:45:32.490Z,1.72
2022-07-27T10:05:33.499Z,1.83
2022-07-27T10:25:40.054Z,1.78
2022-07-27T10:45:50.491Z,2.06
2022-07-27T11:06:06.721Z,2.09
2022-07-27T11:25:57.823Z,1.82
2022-07-27T11:46:03.663Z,1.63
2022-07-27T12:06:09.885Z,1.81
2022-07-27T12:26:16.136Z,1.78
2022-07-27T12:46:24.262Z,1.97
2022-07-27T13:06:30.583Z,2.26
2022-07-27T13:26:36.925Z,2.22
2022-07-27T13:46:43.167Z,2.55
2022-07-27T14:06:49.492Z,2.83
2022-07-27T14:26:55.762Z,2.53
2022-07-27T14:47:02.192Z,2.57
2022-07-27T15:07:08.304Z,2.44
2022-07-27T15:27:14.582Z,2.26
2022-07-27T15:47:21.048Z,2.41
2022-07-27T16:07:27.284Z,2.17
2022-07-27T16:27:33.106Z,2.04
2022-07-27T16:47:39.324Z,2.06
2022-07-27T17:07:45.639Z,2.00
2022-07-27T17:27:51.904Z,2.07
2022-07-27T17:47:57.740Z,1.95
2022-07-27T18:08:04.004Z,1.78
2022-07-27T18:28:10.246Z,1.96
2022-07-27T18:48:16.565Z,1.96
2022-07-27T19:08:22.903Z,2.01
2022-07-27T19:28:28.772Z,2.10
2022-07-27T19:48:34.629Z,2.22
2022-07-27T20:08:40.926Z,2.16
2022-07-27T20:28:47.238Z,2.34
2022-07-27T20:48:53.078Z,2.47
2022-07-27T21:08:58.832Z,2.32
2022-07-27T21:29:04.692Z,2.40
2022-07-27T21:49:10.640Z,2.56
2022-07-27T22:09:16.331Z,2.77
2022-07-27T22:29:22.189Z,2.73
2022-07-27T22:49:28.000Z,3.13
2022-07-27T23:09:33.792Z,3.16
2022-07-27T23:29:40.039Z,2.95
2022-07-27T23:49:45.828Z,3.44
